Time;durP1;ratioP1;P1;durP2;ratioP2;P2;SDS_P1;SDS_P2;PMS_P1;PMS_P2;Temp;Humidity;BMP_temperature;BMP_pressure;BME280_temperature;BME280_humidity;BME280_pressure;Samples;Min_cycle;Max_cycle;Signal;HPM_P1;HPM_P2
2020/01/10 00:01:32;;;;;;;5.7;4.5;;;;;;;5.07;62.01758;959.2823;;;;
2020/01/10 00:03:57;;;;;;;6.4;4.5;;;;;;;5.1;61.68066;959.3002;;;;
2020/01/10 00:06:22;;;;;;;6.2;4.3;;;;;;;5.16;62.03027;959.2897;;;;
2020/01/10 00:08:47;;;;;;;5.8;4.4;;;;;;;5.16;61.31641;959.23;;;;
2020/01/10 00:11:13;;;;;;;7.2;4.3;;;;;;;5.17;60.50879;959.2772;;;;
2020/01/10 00:13:38;;;;;;;5.5;3.9;;;;;;;5.28;59.3418;959.3339;;;;
2020/01/10 00:16:03;;;;;;;4.9;3.5;;;;;;;5.36;58.87695;959.3179;;;;
2020/01/10 00:18:29;;;;;;;4.5;3.4;;;;;;;5.46;58.35449;959.2237;;;;
2020/01/10 00:20:54;;;;;;;4.7;3.4;;;;;;;5.52;57.70313;959.2769;;;;
2020/01/10 00:23:19;;;;;;;4.7;3.6;;;;;;;5.52;59.36426;959.2695;;;;
2020/01/10 00:25:44;;;;;;;4.7;3.5;;;;;;;5.58;58.84961;959.2896;;;;
2020/01/10 00:28:10;;;;;;;5.7;3.6;;;;;;;5.45;59.96875;959.3923;;;;
2020/01/10 00:30:35;;;;;;;5;3.5;;;;;;;5.49;59.64453;959.4294;;;;
2020/01/10 00:33:00;;;;;;;4.6;3.3;;;;;;;5.37;60.49316;959.4967;;;;
2020/01/10 00:35:25;;;;;;;4.7;3.4;;;;;;;5.43;59.11328;959.5661;;;;
2020/01/10 00:37:50;;;;;;;4.9;3.4;;;;;;;5.46;59.52734;959.5478;;;;
2020/01/10 00:40:15;;;;;;;5.1;3.5;;;;;;;5.34;59.93164;959.5876;;;;
2020/01/10 00:42:40;;;;;;;5.9;3.8;;;;;;;5.38;60.06055;959.6423;;;;
2020/01/10 00:45:05;;;;;;;4.7;3.6;;;;;;;5.37;60.57227;959.6494;;;;
2020/01/10 00:47:30;;;;;;;4.7;3.7;;;;;;;5.46;60.0166;959.6528;;;;
2020/01/10 00:49:55;;;;;;;4.7;3.7;;;;;;;5.49;60.62305;959.7559;;;;
2020/01/10 00:52:21;;;;;;;4.4;3.6;;;;;;;5.52;61.85645;959.7522;;;;
2020/01/10 00:54:46;;;;;;;4.6;3.5;;;;;;;5.65;59.48535;959.8313;;;;
2020/01/10 00:57:11;;;;;;;6.2;3.7;;;;;;;5.59;60.72754;959.8582;;;;
2020/01/10 00:59:36;;;;;;;5.3;3.7;;;;;;;5.56;59.26758;959.8641;;;;
2020/01/10 01:02:03;;;;;;;5.3;3.4;;;;;;;5.66;58.01855;959.9216;;;;
2020/01/10 01:04:47;;;;;;;4.6;3.1;;;;;;;5.67;57.46387;959.9431;;;;
2020/01/10 01:09:29;;;;;;;4.7;3.5;;;;;;;5.71;57.92383;959.9241;;;;
2020/01/10 01:11:45;;;;;;;5.2;3.4;;;;;;;5.65;58.24512;959.993;;;;
2020/01/10 01:14:17;;;;;;;6.5;3.4;;;;;;;5.65;57.91406;960.0867;;;;
2020/01/10 01:16:33;;;;;;;5.7;3.3;;;;;;;5.64;57.68457;960.0646;;;;
2020/01/10 01:19:02;;;;;;;5.2;3.6;;;;;;;5.63;58.93652;960.0676;;;;
2020/01/10 01:21:51;;;;;;;4.2;3.3;;;;;;;5.54;58.08203;960.1498;;;;
2020/01/10 01:23:47;;;;;;;3.9;3.2;;;;;;;5.55;58.11816;960.0822;;;;
2020/01/10 01:26:12;;;;;;;4.4;3.4;;;;;;;5.41;59.07617;960.1542;;;;
2020/01/10 01:28:38;;;;;;;5;3.1;;;;;;;5.54;58.42383;960.2219;;;;
2020/01/10 01:31:03;;;;;;;4.5;3.1;;;;;;;5.54;57.93457;960.1702;;;;
2020/01/10 01:33:28;;;;;;;4.3;3.2;;;;;;;5.5;59.08984;960.1635;;;;
2020/01/10 01:35:53;;;;;;;4.2;3.4;;;;;;;5.5;58.52148;960.1813;;;;
2020/01/10 01:38:19;;;;;;;5.7;3.1;;;;;;;5.6;57.77246;960.2589;;;;
2020/01/10 01:40:44;;;;;;;4.3;2.9;;;;;;;5.59;59.22656;960.31;;;;
2020/01/10 01:43:09;;;;;;;4;2.8;;;;;;;5.67;57.65723;960.3133;;;;
2020/01/10 01:45:34;;;;;;;5.2;3.1;;;;;;;5.6;57.9873;960.3744;;;;
2020/01/10 01:47:59;;;;;;;4.3;3.2;;;;;;;5.6;58.5459;960.3713;;;;
2020/01/10 01:50:24;;;;;;;3.8;3;;;;;;;5.56;57.50488;960.407;;;;
2020/01/10 01:52:49;;;;;;;3.9;3;;;;;;;5.53;57.48828;960.4077;;;;
2020/01/10 01:55:15;;;;;;;3.7;2.8;;;;;;;5.58;57.60938;960.4106;;;;
2020/01/10 01:57:40;;;;;;;3.8;3.1;;;;;;;5.52;58.64746;960.3912;;;;
2020/01/10 02:00:05;;;;;;;4;3.1;;;;;;;5.48;57.99414;960.3728;;;;
2020/01/10 02:02:32;;;;;;;4;3;;;;;;;5.46;59.27539;960.4892;;;;
2020/01/10 02:05:08;;;;;;;3.4;2.6;;;;;;;5.48;59.10938;960.4998;;;;
2020/01/10 02:07:33;;;;;;;5.2;3.1;;;;;;;5.38;59.87988;960.492;;;;
2020/01/10 02:09:58;;;;;;;4.1;2.9;;;;;;;5.41;57.73438;960.4863;;;;
2020/01/10 02:12:23;;;;;;;5.9;3;;;;;;;5.42;59.27246;960.5476;;;;
2020/01/10 02:14:49;;;;;;;4.4;3;;;;;;;5.39;58.27734;960.5851;;;;
2020/01/10 02:17:14;;;;;;;4.6;2.9;;;;;;;5.47;57.45703;960.6227;;;;
2020/01/10 02:21:13;;;;;;;3.8;2.9;;;;;;;5.49;57.37012;960.6608;;;;
2020/01/10 02:23:38;;;;;;;5.8;2.9;;;;;;;5.48;57.33496;960.735;;;;
2020/01/10 02:26:03;;;;;;;3.8;2.8;;;;;;;5.54;57.47852;960.7745;;;;
2020/01/10 02:28:28;;;;;;;4;2.8;;;;;;;5.6;56.77148;960.7658;;;;
2020/01/10 02:30:54;;;;;;;3.8;2.9;;;;;;;5.62;57.04688;960.8512;;;;
2020/01/10 02:33:19;;;;;;;4.1;3;;;;;;;5.73;56.52637;960.7999;;;;
2020/01/10 02:35:44;;;;;;;4.2;3.2;;;;;;;5.75;56.99414;960.7964;;;;
2020/01/10 02:38:09;;;;;;;3.2;2.6;;;;;;;5.79;56.22754;960.8362;;;;
2020/01/10 02:40:34;;;;;;;4.4;3.1;;;;;;;5.82;56.50391;960.8535;;;;
2020/01/10 02:42:59;;;;;;;4;2.9;;;;;;;5.86;56.31641;960.9099;;;;
2020/01/10 02:45:24;;;;;;;4.6;2.7;;;;;;;5.96;55.78223;960.8965;;;;
2020/01/10 02:47:49;;;;;;;4;2.7;;;;;;;6;55.40039;960.9051;;;;
2020/01/10 02:50:15;;;;;;;4.2;2.7;;;;;;;6.06;54.95117;960.8879;;;;
2020/01/10 02:52:40;;;;;;;4.1;2.7;;;;;;;6.06;55.20313;960.9716;;;;
2020/01/10 02:55:05;;;;;;;4.9;2.7;;;;;;;6.15;54.75879;961.05;;;;
2020/01/10 02:57:31;;;;;;;3.4;2.5;;;;;;;6.23;54.42773;961.1027;;;;
2020/01/10 02:59:56;;;;;;;3.4;2.6;;;;;;;6.26;54.63574;961.0472;;;;
2020/01/10 03:02:21;;;;;;;4;2.4;;;;;;;6.22;54.83691;961.0235;;;;
2020/01/10 03:04:46;;;;;;;2.8;2.4;;;;;;;6.12;55.25684;961.0248;;;;
2020/01/10 03:07:11;;;;;;;3.6;2.7;;;;;;;6.07;55.70508;960.9611;;;;
2020/01/10 03:09:36;;;;;;;4.7;2.5;;;;;;;6.11;55.93848;960.9476;;;;
2020/01/10 03:12:01;;;;;;;3.8;2.5;;;;;;;6.1;55.83398;960.9817;;;;
2020/01/10 03:14:26;;;;;;;3.5;2.5;;;;;;;6.1;56.06348;960.9308;;;;
2020/01/10 03:19:39;;;;;;;3.1;2.5;;;;;;;6.15;56.14844;961.004;;;;
2020/01/10 03:21:41;;;;;;;3.3;2.4;;;;;;;6.15;56.3877;961.0589;;;;
2020/01/10 03:26:37;;;;;;;3.6;2.7;;;;;;;6.12;56.8291;961.0804;;;;
2020/01/10 03:28:57;;;;;;;3.8;2.8;;;;;;;6.09;56.76758;961.1013;;;;
2020/01/10 03:31:22;;;;;;;3.5;2.6;;;;;;;6.1;57.29199;961.0691;;;;
2020/01/10 03:33:47;;;;;;;4;2.7;;;;;;;6.1;57.04199;961.1086;;;;
2020/01/10 03:36:12;;;;;;;4.4;2.7;;;;;;;6.13;56.81836;961.0367;;;;
2020/01/10 03:38:37;;;;;;;4.8;2.7;;;;;;;6.14;57.30859;961.0472;;;;
2020/01/10 03:41:02;;;;;;;4.1;2.7;;;;;;;6.18;57.05273;961.039;;;;
2020/01/10 03:43:27;;;;;;;3.4;2.6;;;;;;;6.18;57.16797;961.0893;;;;
2020/01/10 03:45:52;;;;;;;3.3;2.4;;;;;;;6.24;57.12793;961.1223;;;;
2020/01/10 03:48:19;;;;;;;3.6;2.3;;;;;;;6.23;57.27637;961.1464;;;;
2020/01/10 03:53:11;;;;;;;3.8;2.5;;;;;;;6.29;58.1377;961.1194;;;;
2020/01/10 03:55:33;;;;;;;2.9;2.4;;;;;;;6.29;58.1377;961.1573;;;;
2020/01/10 03:57:59;;;;;;;3;2.2;;;;;;;6.28;58.2168;961.1066;;;;
2020/01/10 04:02:28;;;;;;;3.4;2.5;;;;;;;6.25;59.10156;961.0865;;;;
2020/01/10 04:04:53;;;;;;;3.8;2.2;;;;;;;6.27;59.54883;961.0894;;;;
2020/01/10 04:07:18;;;;;;;3.5;2.4;;;;;;;6.29;60.04199;961.2004;;;;
2020/01/10 04:09:45;;;;;;;3.2;2.3;;;;;;;6.29;60.97656;961.2394;;;;
2020/01/10 04:14:50;;;;;;;3.8;2.5;;;;;;;6.38;61.25195;961.2815;;;;
2020/01/10 04:16:59;;;;;;;3.1;2.2;;;;;;;6.44;61.52148;961.2811;;;;
2020/01/10 04:19:24;;;;;;;2.8;2.3;;;;;;;6.49;61.63184;961.293;;;;
2020/01/10 04:21:50;;;;;;;4.4;2.5;;;;;;;6.42;62.39648;961.2603;;;;
2020/01/10 04:24:14;;;;;;;4.1;2.3;;;;;;;6.46;62.49316;961.2631;;;;
2020/01/10 04:26:39;;;;;;;3;2.2;;;;;;;6.53;62.56055;961.2028;;;;
2020/01/10 04:29:05;;;;;;;4.2;2.4;;;;;;;6.6;63.01563;961.2748;;;;
2020/01/10 04:31:30;;;;;;;3.2;2.3;;;;;;;6.59;63.20801;961.3467;;;;
2020/01/10 04:33:55;;;;;;;3.8;2.4;;;;;;;6.6;63.6543;961.3956;;;;
2020/01/10 04:36:20;;;;;;;4;2.3;;;;;;;6.69;63.23438;961.3795;;;;
2020/01/10 04:38:45;;;;;;;3.1;2.5;;;;;;;6.67;63.49414;961.415;;;;
2020/01/10 04:41:10;;;;;;;3.2;2.2;;;;;;;6.65;64.15234;961.4494;;;;
2020/01/10 04:43:35;;;;;;;3;2.1;;;;;;;6.66;63.83301;961.4252;;;;
2020/01/10 04:46:00;;;;;;;3.7;2.1;;;;;;;6.65;64.38086;961.4356;;;;
2020/01/10 04:48:25;;;;;;;2.4;2;;;;;;;6.71;64.5498;961.3958;;;;
2020/01/10 04:50:50;;;;;;;3.5;2;;;;;;;6.72;64.5498;961.4121;;;;
2020/01/10 04:53:16;;;;;;;2.3;2;;;;;;;6.71;64.83496;961.4314;;;;
2020/01/10 04:55:41;;;;;;;3.2;1.8;;;;;;;6.73;65.27148;961.4735;;;;
2020/01/10 04:58:06;;;;;;;2.8;2.2;;;;;;;6.76;65.45801;961.4932;;;;
2020/01/10 05:00:31;;;;;;;3.6;2.1;;;;;;;6.85;65.30078;961.4005;;;;
2020/01/10 05:02:56;;;;;;;2.5;2.1;;;;;;;6.83;66.1875;961.4867;;;;
2020/01/10 05:05:21;;;;;;;3;2;;;;;;;6.81;66.61816;961.4827;;;;
2020/01/10 05:07:46;;;;;;;3.6;2;;;;;;;6.85;67.03418;961.5236;;;;
2020/01/10 05:10:11;;;;;;;4.5;2.2;;;;;;;6.96;66.80176;961.5327;;;;
2020/01/10 05:12:36;;;;;;;3.5;1.9;;;;;;;6.93;67.29785;961.5243;;;;
2020/01/10 05:15:01;;;;;;;4.7;2.1;;;;;;;6.98;67.50098;961.5715;;;;
2020/01/10 05:17:26;;;;;;;3.3;1.9;;;;;;;6.99;67.55957;961.5272;;;;
2020/01/10 05:19:52;;;;;;;3.6;2.1;;;;;;;7.03;67.91992;961.5168;;;;
2020/01/10 05:22:17;;;;;;;3.2;2.2;;;;;;;7.04;68.16016;961.5225;;;;
2020/01/10 05:24:42;;;;;;;2.7;1.8;;;;;;;7.07;68.25586;961.5156;;;;
2020/01/10 05:27:07;;;;;;;2.7;2;;;;;;;7.05;68.64063;961.5212;;;;
2020/01/10 05:29:32;;;;;;;3.6;1.9;;;;;;;7.08;68.66895;961.5297;;;;
2020/01/10 05:31:57;;;;;;;2.9;1.8;;;;;;;7.04;69.0957;961.5776;;;;
2020/01/10 05:34:22;;;;;;;2.6;2.1;;;;;;;7.17;68.71777;961.519;;;;
2020/01/10 05:36:47;;;;;;;4.4;2;;;;;;;7.13;69.09863;961.5988;;;;
2020/01/10 05:39:12;;;;;;;2.3;2;;;;;;;7.11;69.27832;961.6013;;;;
2020/01/10 05:41:37;;;;;;;2.9;2;;;;;;;7.11;69.39258;961.5995;;;;
2020/01/10 05:44:03;;;;;;;2.3;1.7;;;;;;;7.17;69.14063;961.5547;;;;
2020/01/10 05:46:28;;;;;;;4;2.1;;;;;;;7.26;68.88086;961.6049;;;;
2020/01/10 05:48:53;;;;;;;2.6;1.9;;;;;;;7.17;69.3457;961.6122;;;;
2020/01/10 05:51:18;;;;;;;3.2;2;;;;;;;7.35;68.81348;961.5811;;;;
2020/01/10 05:53:43;;;;;;;2.4;1.9;;;;;;;7.28;69.05469;961.5814;;;;
2020/01/10 05:56:08;;;;;;;3.3;2;;;;;;;7.28;69.13477;961.6057;;;;
2020/01/10 05:58:33;;;;;;;3.1;1.8;;;;;;;7.31;69.24219;961.6521;;;;
2020/01/10 06:00:58;;;;;;;2.4;1.9;;;;;;;7.26;69.61035;961.6705;;;;
2020/01/10 06:03:23;;;;;;;2.5;1.8;;;;;;;7.34;69.30371;961.717;;;;
2020/01/10 06:05:49;;;;;;;3.1;1.8;;;;;;;7.3;69.5166;961.6852;;;;
2020/01/10 06:08:14;;;;;;;2.7;1.6;;;;;;;7.29;69.53809;961.7186;;;;
2020/01/10 06:10:39;;;;;;;3.2;1.9;;;;;;;7.41;69.07617;961.6895;;;;
2020/01/10 06:13:05;;;;;;;2.9;1.8;;;;;;;7.29;69.58203;961.725;;;;
2020/01/10 06:15:30;;;;;;;3;1.7;;;;;;;7.25;69.91895;961.7294;;;;
2020/01/10 06:17:55;;;;;;;2;1.6;;;;;;;7.27;69.71582;961.7643;;;;
2020/01/10 06:20:20;;;;;;;2.9;1.8;;;;;;;7.3;69.44727;961.8003;;;;
2020/01/10 06:22:50;;;;;;;2.8;1.8;;;;;;;7.26;69.57715;961.7889;;;;
2020/01/10 06:27:59;;;;;;;3.5;1.8;;;;;;;7.2;69.66992;961.8458;;;;
2020/01/10 06:30:20;;;;;;;3;1.9;;;;;;;7.17;69.6416;961.8714;;;;
2020/01/10 06:32:45;;;;;;;2.8;1.9;;;;;;;7.16;69.65137;961.8647;;;;
2020/01/10 06:35:10;;;;;;;2.8;1.9;;;;;;;7.05;69.61133;961.8834;;;;
2020/01/10 06:37:35;;;;;;;3.1;2.2;;;;;;;7.03;69.18555;961.8728;;;;
2020/01/10 06:40:01;;;;;;;3.8;2.3;;;;;;;7.01;68.84082;961.8789;;;;
2020/01/10 06:42:26;;;;;;;3.4;2.3;;;;;;;7;68.59961;961.9111;;;;
2020/01/10 06:44:51;;;;;;;4.7;2.5;;;;;;;6.97;68.29688;961.8557;;;;
2020/01/10 06:47:16;;;;;;;3;2.4;;;;;;;6.92;68.43848;961.8489;;;;
2020/01/10 06:49:41;;;;;;;3.9;2.6;;;;;;;6.89;67.34863;961.808;;;;
2020/01/10 06:52:06;;;;;;;4.3;2.6;;;;;;;6.95;67.02734;961.8094;;;;
2020/01/10 06:54:34;;;;;;;5.8;2.6;;;;;;;6.92;67.00977;961.7791;;;;
2020/01/10 06:56:59;;;;;;;4.9;2.4;;;;;;;6.94;66.74023;961.8663;;;;
2020/01/10 06:59:24;;;;;;;4.7;2.5;;;;;;;6.95;66.0918;961.8751;;;;
2020/01/10 07:01:49;;;;;;;4.6;2.6;;;;;;;6.82;66.66406;961.8384;;;;
2020/01/10 07:04:14;;;;;;;3.9;2.4;;;;;;;6.83;66.57422;961.8552;;;;
2020/01/10 07:06:39;;;;;;;4.6;2.5;;;;;;;6.83;66.54102;961.9411;;;;
2020/01/10 07:09:04;;;;;;;4.4;2.7;;;;;;;6.79;66.63672;961.9802;;;;
2020/01/10 07:11:30;;;;;;;5.1;2.8;;;;;;;6.8;66.61523;961.9359;;;;
2020/01/10 07:13:55;;;;;;;4.6;2.4;;;;;;;6.79;66.4541;961.9997;;;;
2020/01/10 07:16:20;;;;;;;3.5;2.5;;;;;;;6.8;66.19336;962.127;;;;
2020/01/10 07:18:45;;;;;;;4.8;2.5;;;;;;;6.74;66.66309;962.2131;;;;
2020/01/10 07:23:39;;;;;;;2.5;2.2;;;;;;;6.76;66.48438;962.1492;;;;
2020/01/10 07:26:01;;;;;;;3.7;2.2;;;;;;;6.75;66.66602;962.2595;;;;
2020/01/10 07:28:26;;;;;;;3.5;2.3;;;;;;;6.76;66.80371;962.2245;;;;
2020/01/10 07:30:51;;;;;;;3.7;2.2;;;;;;;6.78;66.73828;962.2104;;;;
2020/01/10 07:33:16;;;;;;;3.7;2;;;;;;;6.73;67.13086;962.2826;;;;
2020/01/10 07:35:42;;;;;;;4;2.3;;;;;;;6.77;67.12305;962.3339;;;;
2020/01/10 07:38:07;;;;;;;4.3;2.4;;;;;;;6.76;67.24902;962.3079;;;;
2020/01/10 07:40:32;;;;;;;3.6;2.3;;;;;;;6.8;67.16309;962.3619;;;;
2020/01/10 07:42:57;;;;;;;4;2.5;;;;;;;6.8;67.15137;962.3562;;;;
2020/01/10 07:45:22;;;;;;;4.9;2.2;;;;;;;6.86;67.13867;962.3917;;;;
2020/01/10 07:47:48;;;;;;;4;2.3;;;;;;;6.94;67.13965;962.3942;;;;
2020/01/10 07:50:13;;;;;;;4;2.3;;;;;;;7.08;66.89844;962.4767;;;;
2020/01/10 07:52:38;;;;;;;6.6;4.2;;;;;;;7.15;67.14941;962.4286;;;;
2020/01/10 07:55:03;;;;;;;5.3;3.1;;;;;;;7.22;66.89746;962.4543;;;;
2020/01/10 07:57:28;;;;;;;5.3;2.5;;;;;;;7.2;66.97461;962.5023;;;;
2020/01/10 07:59:54;;;;;;;4.2;2.2;;;;;;;7.27;66.9873;962.5238;;;;
2020/01/10 08:02:19;;;;;;;3.6;2.5;;;;;;;7.34;67.04199;962.488;;;;
2020/01/10 08:04:44;;;;;;;5;2.6;;;;;;;7.39;67.16406;962.5613;;;;
2020/01/10 08:07:09;;;;;;;6.2;3.4;;;;;;;7.49;67.03125;962.5729;;;;
2020/01/10 08:09:34;;;;;;;3.5;2.3;;;;;;;7.48;66.9375;962.5405;;;;
2020/01/10 08:11:59;;;;;;;3.6;2.4;;;;;;;7.54;67.21094;962.5781;;;;
2020/01/10 08:14:25;;;;;;;3.7;2.1;;;;;;;7.59;67.31055;962.6299;;;;
2020/01/10 08:16:50;;;;;;;3;2;;;;;;;7.6;67.20801;962.5849;;;;
2020/01/10 08:19:15;;;;;;;3.3;2.3;;;;;;;7.52;67.87109;962.6819;;;;
2020/01/10 08:21:40;;;;;;;4.3;2.6;;;;;;;7.65;67.68555;962.6002;;;;
2020/01/10 08:24:05;;;;;;;3.9;2.2;;;;;;;7.67;68.07715;962.6359;;;;
2020/01/10 08:26:30;;;;;;;4.8;2.4;;;;;;;7.79;68.16504;962.7667;;;;
2020/01/10 08:28:59;;;;;;;5.1;2.1;;;;;;;7.7;68.6084;962.882;;;;
2020/01/10 08:31:21;;;;;;;3.3;2.2;;;;;;;7.74;69.11719;962.8127;;;;
2020/01/10 08:33:46;;;;;;;3.5;2;;;;;;;7.74;69.2998;962.8038;;;;
2020/01/10 08:36:11;;;;;;;2.9;2.1;;;;;;;7.78;69.5;962.8945;;;;
2020/01/10 08:38:36;;;;;;;2.8;1.6;;;;;;;7.84;69.84375;962.8489;;;;
2020/01/10 08:41:01;;;;;;;3.5;2;;;;;;;7.86;69.78906;962.778;;;;
2020/01/10 08:43:26;;;;;;;2.6;1.8;;;;;;;7.83;70.20801;962.7957;;;;
2020/01/10 08:45:52;;;;;;;3.4;2.1;;;;;;;7.93;70.16504;962.8211;;;;
2020/01/10 08:48:17;;;;;;;3.8;1.8;;;;;;;7.89;70.45801;962.8594;;;;
2020/01/10 08:50:42;;;;;;;3.2;2;;;;;;;8.02;70.5;962.9045;;;;
2020/01/10 08:53:07;;;;;;;2.6;1.7;;;;;;;8.06;70.02734;962.9919;;;;
2020/01/10 08:55:32;;;;;;;2.5;1.9;;;;;;;8.03;70.56055;963.0413;;;;
2020/01/10 08:57:57;;;;;;;6.5;1.9;;;;;;;8.06;70.97656;962.9601;;;;
2020/01/10 09:00:22;;;;;;;3.1;1.7;;;;;;;8.1;70.8916;963.0539;;;;
2020/01/10 09:02:48;;;;;;;3.7;1.8;;;;;;;8.02;71.31445;963.0887;;;;
2020/01/10 09:05:13;;;;;;;2.4;1.8;;;;;;;8.09;71.33789;963.0514;;;;
2020/01/10 09:07:38;;;;;;;3;1.8;;;;;;;8.08;71.42578;963.1119;;;;
2020/01/10 09:10:03;;;;;;;4.1;1.5;;;;;;;8.13;71.34375;963.1053;;;;
2020/01/10 09:12:28;;;;;;;3.4;1.6;;;;;;;8.15;71.30078;963.1005;;;;
2020/01/10 09:14:54;;;;;;;3.8;1.6;;;;;;;8.13;71.7666;963.2198;;;;
2020/01/10 09:17:56;;;;;;;2.8;1.6;;;;;;;8.18;71.77441;963.2061;;;;
2020/01/10 09:20:44;;;;;;;2.3;1.6;;;;;;;8.12;71.95996;963.2197;;;;
2020/01/10 09:25:55;;;;;;;3;1.6;;;;;;;8.37;71.52148;963.2546;;;;
2020/01/10 09:27:02;;;;;;;2.4;1.5;;;;;;;8.3;71.79492;963.3312;;;;
2020/01/10 09:29:31;;;;;;;3.1;1.4;;;;;;;8.25;72.20996;963.353;;;;
2020/01/10 09:36:39;;;;;;;3.6;1.6;;;;;;;8.56;71.55078;963.384;;;;
2020/01/10 09:39:05;;;;;;;3.6;1.4;;;;;;;8.49;71.67676;963.3953;;;;
2020/01/10 09:41:29;;;;;;;2.2;1.3;;;;;;;8.67;71.29492;963.3973;;;;
2020/01/10 09:43:54;;;;;;;3.6;1.4;;;;;;;8.6;71.21484;963.3511;;;;
2020/01/10 09:46:20;;;;;;;2.5;1.4;;;;;;;8.58;71.89941;963.4008;;;;
2020/01/10 09:48:45;;;;;;;3.4;2.5;;;;;;;8.7;71.2666;963.3495;;;;
2020/01/10 09:51:10;;;;;;;4.1;1.9;;;;;;;8.79;70.68359;963.3514;;;;
2020/01/10 09:53:35;;;;;;;1.9;1.5;;;;;;;9.01;70.51563;963.3709;;;;
2020/01/10 09:56:00;;;;;;;4.3;1.9;;;;;;;9.17;69.89844;963.4659;;;;
2020/01/10 09:58:25;;;;;;;2.4;1.6;;;;;;;9.24;69.55273;963.4077;;;;
2020/01/10 10:00:50;;;;;;;2.5;1.3;;;;;;;9.17;69.2793;963.4016;;;;
2020/01/10 10:03:15;;;;;;;1.2;1;;;;;;;9.3;69.03613;963.4116;;;;
2020/01/10 10:05:40;;;;;;;1.7;1.1;;;;;;;9.38;68.63477;963.3656;;;;
2020/01/10 10:08:05;;;;;;;1.6;1.1;;;;;;;9.33;68.44434;963.2775;;;;
2020/01/10 10:10:31;;;;;;;1.5;1.2;;;;;;;9.34;68.75391;963.3776;;;;
2020/01/10 10:12:56;;;;;;;2;1.6;;;;;;;9.31;68.69336;963.2905;;;;
2020/01/10 10:15:21;;;;;;;3.4;1.5;;;;;;;9.44;68.34668;963.2195;;;;
2020/01/10 10:17:46;;;;;;;2.2;1.9;;;;;;;9.51;68.15137;963.2247;;;;
2020/01/10 10:20:11;;;;;;;3.6;2.9;;;;;;;9.44;68.25488;963.1853;;;;
2020/01/10 10:22:36;;;;;;;2.8;1.7;;;;;;;9.56;67.95313;963.2271;;;;
2020/01/10 10:25:02;;;;;;;2.3;1.6;;;;;;;9.51;67.84082;963.1912;;;;
2020/01/10 10:27:27;;;;;;;2.7;2;;;;;;;9.51;68.19727;963.1656;;;;
2020/01/10 10:29:52;;;;;;;3;2.1;;;;;;;9.54;68.0293;963.1595;;;;
2020/01/10 10:32:17;;;;;;;2.3;1.7;;;;;;;9.49;68.02148;963.1925;;;;
2020/01/10 10:34:42;;;;;;;3.1;1.7;;;;;;;9.6;67.83203;963.1262;;;;
2020/01/10 10:37:07;;;;;;;1.8;1.3;;;;;;;9.66;67.02637;963.1337;;;;
2020/01/10 10:39:32;;;;;;;2.7;1.5;;;;;;;9.66;67.58887;963.0784;;;;
2020/01/10 10:41:57;;;;;;;1.9;1.3;;;;;;;9.71;66.83984;963.115;;;;
2020/01/10 10:44:22;;;;;;;1.7;1.1;;;;;;;9.84;66.67383;963.1761;;;;
2020/01/10 10:46:47;;;;;;;1.7;1.1;;;;;;;9.78;66.7002;963.212;;;;
2020/01/10 10:49:12;;;;;;;1.7;1.2;;;;;;;9.92;66.42188;963.1874;;;;
2020/01/10 10:51:37;;;;;;;2.5;1.3;;;;;;;9.93;66.58594;963.2612;;;;
2020/01/10 10:54:02;;;;;;;3;1.3;;;;;;;9.94;66.84961;963.2637;;;;
2020/01/10 10:56:27;;;;;;;2.6;1.5;;;;;;;9.98;65.99512;963.3405;;;;
2020/01/10 10:58:53;;;;;;;2.1;1.2;;;;;;;9.75;66.21289;963.3531;;;;
2020/01/10 11:01:18;;;;;;;1.1;1;;;;;;;9.69;66.54785;963.3856;;;;
2020/01/10 11:03:43;;;;;;;2.4;1;;;;;;;9.89;66.24707;963.3039;;;;
2020/01/10 11:06:08;;;;;;;2.4;1.4;;;;;;;10;65.95117;963.2947;;;;
2020/01/10 11:08:33;;;;;;;3.3;1.7;;;;;;;9.9;65.98438;963.3077;;;;
2020/01/10 11:13:28;;;;;;;1.7;1;;;;;;;9.8;66.38086;963.307;;;;
2020/01/10 11:15:49;;;;;;;1.8;1.3;;;;;;;9.95;66.39258;963.3152;;;;
2020/01/10 11:18:14;;;;;;;1.6;1;;;;;;;9.98;66.47754;963.2697;;;;
2020/01/10 11:22:05;;;;;;;1.2;1;;;;;;;9.78;66.79199;963.3328;;;;
2020/01/10 11:23:04;;;;;;;2.2;1.1;;;;;;;9.8;66.72754;963.2859;;;;
2020/01/10 11:25:34;;;;;;;2.4;1.2;;;;;;;9.74;67.23438;963.3933;;;;
2020/01/10 11:30:35;;;;;;;1.6;1.1;;;;;;;9.87;65.9668;963.3439;;;;
2020/01/10 11:37:34;;;;;;;2.1;1.1;;;;;;;10;65.87207;963.3542;;;;
2020/01/10 11:40:00;;;;;;;1.3;1;;;;;;;9.96;66.03809;963.3585;;;;
2020/01/10 11:42:25;;;;;;;2.1;1.1;;;;;;;9.95;66.17578;963.3984;;;;
2020/01/10 11:44:50;;;;;;;1.6;1;;;;;;;10.09;65.62207;963.4324;;;;
2020/01/10 11:47:15;;;;;;;2.5;0.9;;;;;;;10.12;65.52246;963.3338;;;;
2020/01/10 11:49:40;;;;;;;1.4;0.9;;;;;;;10.05;65.77734;963.4233;;;;
2020/01/10 11:52:06;;;;;;;2.1;1.2;;;;;;;10.22;65.41113;963.3925;;;;
2020/01/10 11:54:31;;;;;;;1.8;1.2;;;;;;;10.51;64.67188;963.4241;;;;
2020/01/10 11:56:56;;;;;;;2;1;;;;;;;10.48;64.24219;963.4813;;;;
2020/01/10 11:59:22;;;;;;;1.6;1;;;;;;;10.54;64.31934;963.4981;;;;
2020/01/10 12:01:47;;;;;;;1.9;0.8;;;;;;;10.44;63.77637;963.403;;;;
2020/01/10 12:04:12;;;;;;;1.5;0.8;;;;;;;10.38;64.21582;963.4314;;;;
2020/01/10 12:06:37;;;;;;;1.9;0.9;;;;;;;10.38;63.92773;963.4836;;;;
2020/01/10 12:09:04;;;;;;;5.7;2.3;;;;;;;10.64;63.64453;963.3881;;;;
2020/01/10 12:11:28;;;;;;;2.4;1;;;;;;;10.53;63.41016;963.4415;;;;
2020/01/10 12:13:53;;;;;;;1.7;1;;;;;;;10.51;63.75098;963.4339;;;;
2020/01/10 12:16:18;;;;;;;2.1;1.1;;;;;;;10.57;63.67969;963.4117;;;;
2020/01/10 12:18:43;;;;;;;1.4;0.9;;;;;;;10.45;63.08594;963.4364;;;;
2020/01/10 12:21:08;;;;;;;2.3;1;;;;;;;10.56;63.10352;963.4765;;;;
2020/01/10 12:23:33;;;;;;;1.2;0.9;;;;;;;10.47;63.27441;963.4175;;;;
2020/01/10 12:25:59;;;;;;;1.9;0.9;;;;;;;10.59;62.7959;963.449;;;;
2020/01/10 12:28:24;;;;;;;1.8;1.1;;;;;;;10.65;63.08203;963.4571;;;;
2020/01/10 12:30:49;;;;;;;2;1.1;;;;;;;10.69;62.1084;963.4685;;;;
2020/01/10 12:33:14;;;;;;;1.3;1.1;;;;;;;10.56;62.83789;963.4589;;;;
2020/01/10 12:35:40;;;;;;;3;0.9;;;;;;;10.45;62.23633;963.4373;;;;
2020/01/10 12:38:05;;;;;;;1.4;1;;;;;;;10.52;62.16602;963.4333;;;;
2020/01/10 12:40:30;;;;;;;2.9;1.1;;;;;;;10.28;62.93457;963.4686;;;;
2020/01/10 12:42:55;;;;;;;1.7;0.8;;;;;;;10.37;62.63867;963.4799;;;;
2020/01/10 12:45:20;;;;;;;1.7;0.9;;;;;;;10.45;62.66211;963.4641;;;;
2020/01/10 12:47:45;;;;;;;1.9;0.8;;;;;;;10.33;62.67773;963.5385;;;;
2020/01/10 12:50:11;;;;;;;0.9;0.7;;;;;;;10.35;62.42871;963.5347;;;;
2020/01/10 12:52:36;;;;;;;1.8;1;;;;;;;10.56;62.19336;963.5995;;;;
2020/01/10 12:55:01;;;;;;;1.7;1.2;;;;;;;10.62;62.03027;963.6422;;;;
2020/01/10 12:57:26;;;;;;;1.9;0.9;;;;;;;10.5;62.37012;963.7328;;;;
2020/01/10 12:59:51;;;;;;;2.3;1;;;;;;;10.5;62.44922;963.721;;;;
2020/01/10 13:02:17;;;;;;;1.7;1;;;;;;;10.48;62.72266;963.7175;;;;
2020/01/10 13:04:42;;;;;;;1.3;1.1;;;;;;;10.56;62.64258;963.5946;;;;
2020/01/10 13:07:07;;;;;;;1.7;1.1;;;;;;;10.45;63.24805;963.6116;;;;
2020/01/10 13:09:32;;;;;;;2.4;1;;;;;;;10.39;63.22949;963.6713;;;;
2020/01/10 13:11:57;;;;;;;2.5;1;;;;;;;10.33;63.24121;963.6744;;;;
2020/01/10 13:14:23;;;;;;;2;0.9;;;;;;;10.5;62.69141;963.6494;;;;
2020/01/10 13:16:54;;;;;;;2.1;1;;;;;;;10.49;62.94336;963.7796;;;;
2020/01/10 13:19:42;;;;;;;1.6;1;;;;;;;10.48;62.81543;963.7525;;;;
2020/01/10 13:24:04;;;;;;;2.1;1.1;;;;;;;10.33;63.42578;963.777;;;;
2020/01/10 13:26:28;;;;;;;1.4;1;;;;;;;10.4;63.21777;963.8513;;;;
2020/01/10 13:28:54;;;;;;;1.9;0.9;;;;;;;10.43;63.04883;963.7894;;;;
2020/01/10 13:31:19;;;;;;;2.8;1.1;;;;;;;10.35;63.86719;963.8035;;;;
2020/01/10 13:33:44;;;;;;;1.9;0.9;;;;;;;10.28;63.9248;963.8506;;;;
2020/01/10 13:36:09;;;;;;;2.6;1.1;;;;;;;10.28;64.00391;963.8742;;;;
2020/01/10 13:38:34;;;;;;;2.4;1;;;;;;;10.17;64.18359;963.9208;;;;
2020/01/10 13:41:00;;;;;;;2.9;1.1;;;;;;;10.16;64.45801;964.0002;;;;
2020/01/10 13:43:25;;;;;;;1.6;0.9;;;;;;;10.15;64.72168;964.0236;;;;
2020/01/10 13:45:50;;;;;;;1.1;0.9;;;;;;;10.18;64.51953;964.0342;;;;
2020/01/10 13:48:21;;;;;;;3;1;;;;;;;10.1;64.70313;963.9578;;;;
2020/01/10 13:50:40;;;;;;;1.4;1;;;;;;;10.04;64.77441;964.0058;;;;
2020/01/10 13:53:06;;;;;;;2.6;1.1;;;;;;;10;65.08984;964.0151;;;;
2020/01/10 13:55:31;;;;;;;1.2;0.8;;;;;;;9.98;65.12109;963.9942;;;;
2020/01/10 13:57:57;;;;;;;2.6;1.2;;;;;;;10.01;65.44824;963.9992;;;;
2020/01/10 14:00:22;;;;;;;1.2;0.9;;;;;;;9.97;65.39551;964.0226;;;;
2020/01/10 14:02:47;;;;;;;2.5;1.1;;;;;;;9.98;65.31836;963.9934;;;;
2020/01/10 14:05:12;;;;;;;2.5;1;;;;;;;9.94;65.58691;963.9844;;;;
2020/01/10 14:07:37;;;;;;;1.7;1;;;;;;;9.81;65.58984;964.0577;;;;
2020/01/10 14:10:02;;;;;;;2.8;1.2;;;;;;;9.89;65.64746;964.1284;;;;
2020/01/10 14:12:28;;;;;;;2;1;;;;;;;9.91;65.7998;964.1567;;;;
2020/01/10 14:14:53;;;;;;;3.4;1.2;;;;;;;9.83;65.78906;964.139;;;;
2020/01/10 14:17:18;;;;;;;1.7;1;;;;;;;9.79;65.91992;964.2428;;;;
2020/01/10 14:19:44;;;;;;;2.2;1.1;;;;;;;9.76;66.15625;964.1964;;;;
2020/01/10 14:22:09;;;;;;;2.3;1.1;;;;;;;9.75;66.44141;964.2845;;;;
2020/01/10 14:24:34;;;;;;;2.7;1.2;;;;;;;9.71;66.58594;964.3072;;;;
2020/01/10 14:26:59;;;;;;;2.3;1.1;;;;;;;9.68;66.74219;964.3599;;;;
2020/01/10 14:29:24;;;;;;;2;1.3;;;;;;;9.7;66.49219;964.355;;;;
2020/01/10 14:31:50;;;;;;;1.5;1.2;;;;;;;9.58;67.20801;964.4269;;;;
2020/01/10 14:34:15;;;;;;;3.1;1.2;;;;;;;9.66;67.03809;964.4146;;;;
2020/01/10 14:36:40;;;;;;;3.1;1.3;;;;;;;9.58;67.3584;964.3692;;;;
2020/01/10 14:39:05;;;;;;;2.7;1;;;;;;;9.58;67.38184;964.3334;;;;
2020/01/10 14:41:30;;;;;;;2.7;1.1;;;;;;;9.52;67.69336;964.3226;;;;
2020/01/10 14:43:55;;;;;;;2.3;1.3;;;;;;;9.59;67.73926;964.3742;;;;
2020/01/10 14:46:20;;;;;;;2.2;1.2;;;;;;;9.6;67.72852;964.3627;;;;
2020/01/10 14:48:45;;;;;;;2.7;1.3;;;;;;;9.61;67.66113;964.4385;;;;
2020/01/10 14:51:10;;;;;;;3;1.3;;;;;;;9.5;67.83984;964.5449;;;;
2020/01/10 14:53:36;;;;;;;2.5;1.2;;;;;;;9.52;68.10645;964.4991;;;;
2020/01/10 14:56:01;;;;;;;3;1.5;;;;;;;9.6;67.99316;964.5303;;;;
2020/01/10 14:58:26;;;;;;;2.7;1.8;;;;;;;9.55;68.07617;964.5594;;;;
2020/01/10 15:01:28;;;;;;;2.3;1.5;;;;;;;9.59;67.83105;964.6135;;;;
2020/01/10 15:03:35;;;;;;;2.1;1.4;;;;;;;9.51;68.10352;964.5457;;;;
2020/01/10 15:10:46;;;;;;;2.9;1.3;;;;;;;9.47;68.37305;964.6284;;;;
2020/01/10 15:12:57;;;;;;;3.8;1.6;;;;;;;9.5;68.37891;964.7181;;;;